Aérodrome :
LOGIN :

S'inscrire | Disclaimer

   EN    FR    IT 

 










Légende :    VFR   VFR Marginal   IFR   IFR Intensif   IFR Très Intensif
Visi : 
Plafond : 
>= 8 km
>= 3000ft
5 à 8 km
1000 à 3000 ft
1500m à 5 km
500 à 1000 ft
800 à 1500m
200 à 500 ft
< 800m
< 200 ft
Symboles :   Orages  Brouillard  Fortes neiges  Fortes précipitations  Vent > 20 kt
SIGMETs :   Divers  Orages  Givrage  Turbulence  Onde Orograph.  Cendres Volcan.







- Altitude de l'aérodrome : 80 ft
- Code IATA : LPL
- Voir les cartes d'approche


EGGP - Liverpool John Lennon

DERNIER METAR :
  • 211050Z 13004KT 070V200 CAVOK 20/08 Q1018

METARs EXPIRÉS :
  • 211020Z 12004KT 080V170 CAVOK 20/06 Q1018
  • 210950Z 12004KT 080V180 CAVOK 19/09 Q1018
  • 210920Z 12005KT 090V170 CAVOK 19/10 Q1018
  • 210850Z 10005KT 070V150 CAVOK 18/12 Q1018
  • 210820Z 11005KT 080V150 CAVOK 17/11 Q1018

TAF TAF EGGP
Valide du 21 à 06h jusqu'au 22 à 06h UTC


210454Z 2106/2206 VRB04KT 9999 FEW045
PROB30 2106/2109 6000
PROB30
TEMPO 2114/2120 8000 SHRA
BECMG 2118/2121 33010KT
BECMG 2200/2203 VRB04KT
PROB30 2202/2206 6000
ATIS : +44 151 907 2000 (option 5 or ext 5150)
Météo : +44 871 750 5150
Pas de NOTAMs connus pour ce terrain.



MET'MAP, la Météo Aéronautique d'un coup d'oeil ! - Copyright ORBIFLY Décembre 2007 - Disclaimer

ORBIFLY MET'MAP TEAM :

Programmation & Développement : Alexandra Zaïnal
Conception & Développement : Baudouin d'Aumeries
Co-Programmation & Développement : Marc-Olivier Méhu
Soutien technique & logistique : Manuel Goepfert

Contact : metmap@orbifly.com




SOURCES & CREDITS :

   NOAA